createdAt,value
2023-07-10T15:45:45.771Z,100244.22
2023-07-10T15:48:48.102Z,100246.19
2023-07-10T15:51:55.614Z,100250.03
2023-07-10T15:55:24.498Z,100245.19
2023-07-10T15:58:26.739Z,100241.66
2023-07-10T16:01:28.976Z,100235.56
2023-07-10T16:04:31.246Z,100234.38
2023-07-10T16:07:33.457Z,100224.84
2023-07-10T16:10:35.634Z,100222.38
2023-07-10T16:13:38.019Z,100213.66
2023-07-10T16:16:40.321Z,100200.97
2023-07-10T16:19:42.625Z,100191.78
2023-07-10T16:22:52.223Z,100194.88
2023-07-10T16:25:55.554Z,100188.53
2023-07-10T16:29:13.762Z,100174.19
2023-07-10T16:32:17.051Z,100181.31
2023-07-10T16:35:25.016Z,100185.59
2023-07-10T16:38:27.550Z,100188.03
2023-07-10T16:41:32.842Z,100187.16
2023-07-10T16:44:35.069Z,100178.06
2023-07-10T16:47:37.351Z,100179.59
2023-07-10T16:50:39.625Z,100185.84
2023-07-10T16:53:42.705Z,100185.75
2023-07-10T16:56:44.984Z,100203.91
2023-07-10T16:59:47.191Z,100207.00
2023-07-10T17:02:54.017Z,100207.34
2023-07-10T17:06:00.365Z,100214.47
2023-07-10T17:09:02.811Z,100210.38
2023-07-10T17:12:05.359Z,100224.94
2023-07-10T17:15:10.825Z,100227.69
2023-07-10T17:18:18.104Z,100224.06
2023-07-10T17:21:20.418Z,100218.81
2023-07-10T17:24:23.041Z,100223.09
2023-07-10T17:27:29.860Z,100228.13
2023-07-10T17:30:32.122Z,100237.16
2023-07-10T17:33:38.637Z,100234.69
2023-07-10T17:36:40.806Z,100244.50
2023-07-10T17:39:43.811Z,100262.25
2023-07-10T17:42:46.092Z,100285.06
2023-07-10T17:45:48.920Z,100298.03
2023-07-10T17:48:51.156Z,100295.53
2023-07-10T17:51:53.529Z,100300.03
2023-07-10T17:54:55.814Z,100306.69
2023-07-10T17:57:58.977Z,100306.84
2023-07-10T18:01:01.416Z,100297.69
2023-07-10T18:04:03.721Z,100306.59
2023-07-10T18:07:05.970Z,100310.72
2023-07-10T18:10:09.001Z,100313.44
2023-07-10T18:13:28.864Z,100315.66
2023-07-10T18:16:31.186Z,100322.88
2023-07-10T18:19:33.374Z,100332.22
2023-07-10T18:22:36.692Z,100312.84
2023-07-10T18:25:38.853Z,100273.16
2023-07-10T18:28:41.141Z,100256.81
2023-07-10T18:31:44.108Z,100269.34
2023-07-10T18:34:49.137Z,100331.44
2023-07-10T18:37:51.355Z,100331.34
2023-07-10T18:40:56.732Z,100347.69
2023-07-10T18:44:00.395Z,100351.97
2023-07-10T18:47:02.617Z,100341.28
2023-07-10T18:50:07.031Z,100345.19
2023-07-10T18:53:14.685Z,100338.38
2023-07-10T18:56:17.580Z,100341.38
2023-07-10T18:59:27.670Z,100347.66
2023-07-10T19:02:30.065Z,100351.28
2023-07-10T19:05:32.468Z,100340.28
2023-07-10T19:08:35.132Z,100341.53
2023-07-10T19:11:37.317Z,100317.78
2023-07-10T19:14:39.463Z,100332.53
2023-07-10T19:17:42.736Z,100318.72
2023-07-10T19:20:45.020Z,100348.22
2023-07-10T19:23:47.336Z,100350.75
2023-07-10T19:26:52.808Z,100363.13
2023-07-10T19:29:55.100Z,100366.69
2023-07-10T19:32:57.351Z,100398.59
2023-07-10T19:35:59.660Z,100401.91
2023-07-10T19:39:03.749Z,100410.16
2023-07-10T19:42:06.393Z,100409.63
2023-07-10T19:45:09.494Z,100400.66
2023-07-10T19:48:16.823Z,100384.75
2023-07-10T19:51:19.038Z,100396.31
2023-07-10T19:54:25.169Z,100399.75
2023-07-10T19:57:30.317Z,100371.66
2023-07-10T20:00:32.647Z,100358.59
2023-07-10T20:03:35.313Z,100350.34
2023-07-10T20:06:38.542Z,100347.31
2023-07-10T20:09:41.682Z,100348.28
2023-07-10T20:12:44.020Z,100334.19
2023-07-10T20:15:51.768Z,100325.22
2023-07-10T20:18:55.251Z,100348.13
2023-07-10T20:21:57.425Z,100331.78
2023-07-10T20:25:01.715Z,100327.41
2023-07-10T20:28:04.238Z,100311.84
2023-07-10T20:31:06.864Z,100321.47
2023-07-10T20:34:10.413Z,100320.69
2023-07-10T20:37:13.027Z,100323.53
2023-07-10T20:40:16.409Z,100324.44
2023-07-10T20:43:20.123Z,100326.88
2023-07-10T20:46:25.172Z,100318.50
2023-07-10T20:49:27.808Z,100317.38
2023-07-10T20:52:29.998Z,100318.31
2023-07-10T20:55:32.194Z,100298.59
2023-07-10T20:58:34.491Z,100293.28
2023-07-10T21:01:36.748Z,100297.88
2023-07-10T21:04:38.965Z,100306.38
2023-07-10T21:07:41.706Z,100306.75
2023-07-10T21:10:44.083Z,100310.25
2023-07-10T21:13:48.662Z,100289.41
2023-07-10T21:16:51.198Z,100296.53
2023-07-10T21:19:53.464Z,100280.34
2023-07-10T21:22:56.791Z,100282.53
2023-07-10T21:26:11.392Z,100280.69
2023-07-10T21:29:17.062Z,100271.09
2023-07-10T21:32:23.044Z,100267.75
2023-07-10T21:35:30.629Z,100264.69
2023-07-10T21:38:32.869Z,100260.91
2023-07-10T21:41:39.482Z,100258.72
2023-07-10T21:44:41.780Z,100244.53
2023-07-10T21:47:44.032Z,100243.56
2023-07-10T21:50:46.692Z,100259.72
2023-07-10T21:53:50.113Z,100268.59
2023-07-10T21:56:52.350Z,100272.56
2023-07-10T21:59:54.587Z,100272.56
2023-07-10T22:02:56.944Z,100272.81
2023-07-10T22:06:02.132Z,100275.56
2023-07-10T22:09:04.341Z,100265.69
2023-07-10T22:12:12.964Z,100269.59
2023-07-10T22:15:20.545Z,100267.53
2023-07-10T22:18:41.715Z,100265.72
2023-07-10T22:21:43.985Z,100269.72
2023-07-10T22:24:46.662Z,100279.28
2023-07-10T22:27:48.908Z,100282.34
2023-07-10T22:30:54.401Z,100286.59
2023-07-10T22:33:57.328Z,100286.84
2023-07-10T22:36:59.508Z,100276.75
2023-07-10T22:40:02.245Z,100276.06
2023-07-10T22:43:04.495Z,100275.47
2023-07-10T22:46:14.586Z,100289.31
2023-07-10T22:49:17.403Z,100292.19
2023-07-10T22:52:19.630Z,100293.09
2023-07-10T22:55:21.867Z,100278.09
2023-07-10T22:58:24.120Z,100255.09
2023-07-10T23:01:27.112Z,100266.53
2023-07-10T23:04:29.329Z,100254.59
2023-07-10T23:07:31.622Z,100258.91
2023-07-10T23:10:37.322Z,100261.50
2023-07-10T23:13:39.811Z,100254.16
2023-07-10T23:16:42.085Z,100253.44
2023-07-10T23:19:44.287Z,100240.84
2023-07-10T23:22:46.735Z,100242.78
2023-07-10T23:25:49.024Z,100249.69
2023-07-10T23:28:51.517Z,100251.97
2023-07-10T23:31:53.694Z,100259.06
2023-07-10T23:35:02.958Z,100255.25
2023-07-10T23:38:05.992Z,100261.81
2023-07-10T23:41:31.359Z,100253.69
2023-07-10T23:44:33.556Z,100259.59
2023-07-10T23:47:35.880Z,100257.19
2023-07-10T23:50:38.113Z,100255.47
2023-07-10T23:53:40.670Z,100262.44
2023-07-10T23:56:42.917Z,100257.16
2023-07-10T23:59:45.257Z,100253.59
